Climax, Colorado
Current Conditions -  °F | °C
As of 5:15 PM on Monday 22 Dec 2014 (Local Time) from KCCU Reporting Station
Overcast Overcast  
Wind Chill: -12°   Ceiling: 100
Heat Index: 12°   Visibility: NA
Dew Point:   Wind: 39mph
Humidity: 73%   Direction: 290°WNW
Pressure: 29.65"   Gusts: NA
Location:  39.38°N, 106.18°W
Report Text: KCCU 230015Z AUTO 29034KT BKN001 OVC005 M11/M15 A2965 RMK AO2 PWINO
Loading
Personal Weather Stations






























Interactive Weather Map New forecast layout! Learn more

10-Day Weather Forecast

Advertisements
Track Severe Weather on mobile